sensor_id;sensor_type;location;lat;lon;timestamp;temperature;humidity
41435;DHT22;27177;22.262;114.192;2023-02-10T00:00:44;18.80;99.90
41435;DHT22;27177;22.262;114.192;2023-02-10T00:03:10;18.80;99.90
41435;DHT22;27177;22.262;114.192;2023-02-10T00:05:37;18.80;99.90
41435;DHT22;27177;22.262;114.192;2023-02-10T00:08:03;18.80;99.90
41435;DHT22;27177;22.262;114.192;2023-02-10T00:10:29;18.80;99.90
41435;DHT22;27177;22.262;114.192;2023-02-10T00:12:56;18.80;99.90
41435;DHT22;27177;22.262;114.192;2023-02-10T00:15:22;18.80;99.90
41435;DHT22;27177;22.262;114.192;2023-02-10T00:17:48;18.80;99.90
41435;DHT22;27177;22.262;114.192;2023-02-10T00:20:14;18.70;99.90
41435;DHT22;27177;22.262;114.192;2023-02-10T00:22:41;18.80;99.90
41435;DHT22;27177;22.262;114.192;2023-02-10T00:25:07;18.80;99.90
41435;DHT22;27177;22.262;114.192;2023-02-10T00:27:33;18.80;99.90
41435;DHT22;27177;22.262;114.192;2023-02-10T00:29:59;18.80;99.90
41435;DHT22;27177;22.262;114.192;2023-02-10T00:32:26;18.80;99.90
41435;DHT22;27177;22.262;114.192;2023-02-10T00:34:52;18.80;99.90
41435;DHT22;27177;22.262;114.192;2023-02-10T00:37:19;18.80;99.90
41435;DHT22;27177;22.262;114.192;2023-02-10T00:39:45;18.80;99.90
41435;DHT22;27177;22.262;114.192;2023-02-10T00:42:12;18.90;99.90
41435;DHT22;27177;22.262;114.192;2023-02-10T00:44:38;18.90;99.90
41435;DHT22;27177;22.262;114.192;2023-02-10T00:47:04;18.90;99.90
41435;DHT22;27177;22.262;114.192;2023-02-10T00:49:30;18.90;99.90
41435;DHT22;27177;22.262;114.192;2023-02-10T00:51:57;19.00;99.90
41435;DHT22;27177;22.262;114.192;2023-02-10T00:54:23;19.00;99.90
41435;DHT22;27177;22.262;114.192;2023-02-10T00:56:49;19.10;99.90
41435;DHT22;27177;22.262;114.192;2023-02-10T00:59:16;19.10;99.90
41435;DHT22;27177;22.262;114.192;2023-02-10T01:01:42;19.20;99.90
41435;DHT22;27177;22.262;114.192;2023-02-10T01:04:09;19.20;99.90
41435;DHT22;27177;22.262;114.192;2023-02-10T01:06:35;19.30;99.90
41435;DHT22;27177;22.262;114.192;2023-02-10T01:09:01;19.30;99.90
41435;DHT22;27177;22.262;114.192;2023-02-10T01:11:27;19.40;99.90
41435;DHT22;27177;22.262;114.192;2023-02-10T01:13:54;19.40;99.90
41435;DHT22;27177;22.262;114.192;2023-02-10T01:16:20;19.50;99.90
41435;DHT22;27177;22.262;114.192;2023-02-10T01:18:46;19.60;99.90
41435;DHT22;27177;22.262;114.192;2023-02-10T01:21:13;19.70;99.90
41435;DHT22;27177;22.262;114.192;2023-02-10T01:23:40;19.80;99.90
41435;DHT22;27177;22.262;114.192;2023-02-10T01:26:07;19.90;99.90
41435;DHT22;27177;22.262;114.192;2023-02-10T01:28:35;20.10;99.90
41435;DHT22;27177;22.262;114.192;2023-02-10T01:31:05;20.20;99.90
41435;DHT22;27177;22.262;114.192;2023-02-10T01:33:32;20.30;99.90
41435;DHT22;27177;22.262;114.192;2023-02-10T01:36:01;20.40;99.90
41435;DHT22;27177;22.262;114.192;2023-02-10T01:38:28;20.40;99.90
41435;DHT22;27177;22.262;114.192;2023-02-10T01:40:54;20.50;99.90
41435;DHT22;27177;22.262;114.192;2023-02-10T01:43:20;20.60;99.90
41435;DHT22;27177;22.262;114.192;2023-02-10T01:45:46;20.70;99.90
41435;DHT22;27177;22.262;114.192;2023-02-10T01:48:13;20.70;99.90
41435;DHT22;27177;22.262;114.192;2023-02-10T01:50:47;20.80;99.90
41435;DHT22;27177;22.262;114.192;2023-02-10T01:53:16;20.80;99.90
41435;DHT22;27177;22.262;114.192;2023-02-10T01:55:43;20.70;99.90
41435;DHT22;27177;22.262;114.192;2023-02-10T01:58:11;20.60;99.90
41435;DHT22;27177;22.262;114.192;2023-02-10T02:00:38;20.60;99.90
41435;DHT22;27177;22.262;114.192;2023-02-10T02:03:05;20.50;99.90
41435;DHT22;27177;22.262;114.192;2023-02-10T02:05:33;20.40;99.90
41435;DHT22;27177;22.262;114.192;2023-02-10T02:08:07;20.40;99.90
41435;DHT22;27177;22.262;114.192;2023-02-10T02:10:37;20.40;99.90
41435;DHT22;27177;22.262;114.192;2023-02-10T02:13:09;20.40;99.90
41435;DHT22;27177;22.262;114.192;2023-02-10T02:20:59;20.30;99.90
41435;DHT22;27177;22.262;114.192;2023-02-10T02:31:29;20.20;99.90
41435;DHT22;27177;22.262;114.192;2023-02-10T02:34:17;20.20;99.90
41435;DHT22;27177;22.262;114.192;2023-02-10T02:36:59;20.20;99.90
41435;DHT22;27177;22.262;114.192;2023-02-10T02:39:27;20.20;99.90
41435;DHT22;27177;22.262;114.192;2023-02-10T02:42:27;20.20;99.90
41435;DHT22;27177;22.262;114.192;2023-02-10T02:44:48;20.30;99.90
41435;DHT22;27177;22.262;114.192;2023-02-10T02:47:30;20.30;99.90
41435;DHT22;27177;22.262;114.192;2023-02-10T02:53:13;20.40;99.90
41435;DHT22;27177;22.262;114.192;2023-02-10T02:55:25;20.40;99.90
41435;DHT22;27177;22.262;114.192;2023-02-10T02:57:57;20.40;99.90
41435;DHT22;27177;22.262;114.192;2023-02-10T03:00:27;20.50;99.90
41435;DHT22;27177;22.262;114.192;2023-02-10T03:08:06;20.40;99.90
41435;DHT22;27177;22.262;114.192;2023-02-10T03:13:18;20.40;99.90
41435;DHT22;27177;22.262;114.192;2023-02-10T03:21:46;20.40;99.90
41435;DHT22;27177;22.262;114.192;2023-02-10T03:24:13;20.40;99.90
41435;DHT22;27177;22.262;114.192;2023-02-10T03:26:40;20.40;99.90
41435;DHT22;27177;22.262;114.192;2023-02-10T03:29:06;20.40;99.90
41435;DHT22;27177;22.262;114.192;2023-02-10T03:31:32;20.40;99.90
41435;DHT22;27177;22.262;114.192;2023-02-10T03:33:58;20.50;99.90
41435;DHT22;27177;22.262;114.192;2023-02-10T03:36:25;20.60;99.90
41435;DHT22;27177;22.262;114.192;2023-02-10T03:38:51;20.80;99.90
41435;DHT22;27177;22.262;114.192;2023-02-10T03:41:17;20.90;99.90
41435;DHT22;27177;22.262;114.192;2023-02-10T03:43:43;21.00;99.90
41435;DHT22;27177;22.262;114.192;2023-02-10T03:46:10;21.00;99.90
41435;DHT22;27177;22.262;114.192;2023-02-10T03:51:12;21.10;99.90
41435;DHT22;27177;22.262;114.192;2023-02-10T03:53:38;21.00;99.90
41435;DHT22;27177;22.262;114.192;2023-02-10T03:58:40;21.10;99.90
41435;DHT22;27177;22.262;114.192;2023-02-10T04:01:13;21.10;99.90
41435;DHT22;27177;22.262;114.192;2023-02-10T04:03:40;21.10;99.90
41435;DHT22;27177;22.262;114.192;2023-02-10T04:06:07;21.10;99.90
41435;DHT22;27177;22.262;114.192;2023-02-10T04:08:33;21.20;99.90
41435;DHT22;27177;22.262;114.192;2023-02-10T04:10:59;21.20;99.90
41435;DHT22;27177;22.262;114.192;2023-02-10T04:13:26;21.30;99.90
41435;DHT22;27177;22.262;114.192;2023-02-10T04:16:05;21.50;99.90
41435;DHT22;27177;22.262;114.192;2023-02-10T04:18:32;21.60;99.90
41435;DHT22;27177;22.262;114.192;2023-02-10T04:20:59;21.80;99.90
41435;DHT22;27177;22.262;114.192;2023-02-10T04:23:27;22.00;99.90
41435;DHT22;27177;22.262;114.192;2023-02-10T04:25:54;22.20;99.90
41435;DHT22;27177;22.262;114.192;2023-02-10T04:28:20;22.40;99.90
41435;DHT22;27177;22.262;114.192;2023-02-10T04:30:50;22.50;99.90
41435;DHT22;27177;22.262;114.192;2023-02-10T04:33:16;22.50;99.90
41435;DHT22;27177;22.262;114.192;2023-02-10T04:35:42;22.70;99.90
41435;DHT22;27177;22.262;114.192;2023-02-10T04:38:10;22.80;99.90
41435;DHT22;27177;22.262;114.192;2023-02-10T04:40:36;22.90;99.90
41435;DHT22;27177;22.262;114.192;2023-02-10T04:43:05;23.10;99.90
41435;DHT22;27177;22.262;114.192;2023-02-10T04:45:31;23.20;99.90
41435;DHT22;27177;22.262;114.192;2023-02-10T04:47:58;23.40;99.90
41435;DHT22;27177;22.262;114.192;2023-02-10T04:50:24;23.50;99.90
41435;DHT22;27177;22.262;114.192;2023-02-10T04:52:50;23.50;99.90
41435;DHT22;27177;22.262;114.192;2023-02-10T04:55:17;23.60;99.90
41435;DHT22;27177;22.262;114.192;2023-02-10T04:57:43;23.50;99.90
41435;DHT22;27177;22.262;114.192;2023-02-10T05:00:09;23.40;99.90
41435;DHT22;27177;22.262;114.192;2023-02-10T05:02:36;23.20;99.90
41435;DHT22;27177;22.262;114.192;2023-02-10T05:05:02;23.10;99.90
41435;DHT22;27177;22.262;114.192;2023-02-10T05:07:29;23.00;99.90
41435;DHT22;27177;22.262;114.192;2023-02-10T05:09:56;22.80;99.90
41435;DHT22;27177;22.262;114.192;2023-02-10T05:12:22;22.70;99.90
41435;DHT22;27177;22.262;114.192;2023-02-10T05:15:00;22.80;99.90
41435;DHT22;27177;22.262;114.192;2023-02-10T05:17:27;22.70;99.90
41435;DHT22;27177;22.262;114.192;2023-02-10T05:19:53;22.60;99.90
41435;DHT22;27177;22.262;114.192;2023-02-10T05:22:19;22.60;99.90
41435;DHT22;27177;22.262;114.192;2023-02-10T05:24:48;22.50;99.90
41435;DHT22;27177;22.262;114.192;2023-02-10T05:27:17;22.50;99.90
41435;DHT22;27177;22.262;114.192;2023-02-10T05:32:19;22.40;99.90
41435;DHT22;27177;22.262;114.192;2023-02-10T05:45:02;22.30;99.90
41435;DHT22;27177;22.262;114.192;2023-02-10T05:50:04;22.50;99.90
41435;DHT22;27177;22.262;114.192;2023-02-10T05:52:30;22.50;99.90
41435;DHT22;27177;22.262;114.192;2023-02-10T05:54:56;22.60;99.90
41435;DHT22;27177;22.262;114.192;2023-02-10T06:05:06;22.40;99.90
41435;DHT22;27177;22.262;114.192;2023-02-10T06:10:08;22.50;99.90
41435;DHT22;27177;22.262;114.192;2023-02-10T06:12:34;22.60;99.90
41435;DHT22;27177;22.262;114.192;2023-02-10T06:15:00;22.70;99.90
41435;DHT22;27177;22.262;114.192;2023-02-10T06:17:27;22.90;99.90
41435;DHT22;27177;22.262;114.192;2023-02-10T06:19:53;23.00;99.90
41435;DHT22;27177;22.262;114.192;2023-02-10T06:22:19;23.20;99.90
41435;DHT22;27177;22.262;114.192;2023-02-10T06:24:46;23.40;99.90
41435;DHT22;27177;22.262;114.192;2023-02-10T06:27:12;23.40;99.90
41435;DHT22;27177;22.262;114.192;2023-02-10T06:29:40;23.40;99.90
41435;DHT22;27177;22.262;114.192;2023-02-10T06:32:06;23.40;99.90
41435;DHT22;27177;22.262;114.192;2023-02-10T06:34:32;23.40;99.90
41435;DHT22;27177;22.262;114.192;2023-02-10T06:36:58;23.40;99.90
41435;DHT22;27177;22.262;114.192;2023-02-10T06:39:25;23.30;99.90
41435;DHT22;27177;22.262;114.192;2023-02-10T06:41:51;23.30;99.90
41435;DHT22;27177;22.262;114.192;2023-02-10T06:44:17;23.40;99.90
41435;DHT22;27177;22.262;114.192;2023-02-10T06:46:43;23.40;99.90
41435;DHT22;27177;22.262;114.192;2023-02-10T06:49:10;23.40;99.90
41435;DHT22;27177;22.262;114.192;2023-02-10T06:51:36;23.40;99.90
41435;DHT22;27177;22.262;114.192;2023-02-10T06:54:02;23.50;99.90
41435;DHT22;27177;22.262;114.192;2023-02-10T06:56:29;23.40;99.90
41435;DHT22;27177;22.262;114.192;2023-02-10T06:58:55;23.30;99.90
41435;DHT22;27177;22.262;114.192;2023-02-10T07:01:21;23.20;99.90
41435;DHT22;27177;22.262;114.192;2023-02-10T07:03:47;23.20;99.90
41435;DHT22;27177;22.262;114.192;2023-02-10T07:06:14;23.30;99.90
41435;DHT22;27177;22.262;114.192;2023-02-10T07:08:44;23.30;99.90
41435;DHT22;27177;22.262;114.192;2023-02-10T07:11:10;23.40;99.90
41435;DHT22;27177;22.262;114.192;2023-02-10T07:13:37;23.50;99.90
41435;DHT22;27177;22.262;114.192;2023-02-10T07:16:03;23.60;99.90
41435;DHT22;27177;22.262;114.192;2023-02-10T07:18:29;23.70;99.90
41435;DHT22;27177;22.262;114.192;2023-02-10T07:20:55;23.80;99.90
41435;DHT22;27177;22.262;114.192;2023-02-10T07:23:22;23.90;99.90
41435;DHT22;27177;22.262;114.192;2023-02-10T07:25:48;24.00;99.90
41435;DHT22;27177;22.262;114.192;2023-02-10T07:28:14;24.00;99.90
41435;DHT22;27177;22.262;114.192;2023-02-10T07:30:41;24.00;99.90
41435;DHT22;27177;22.262;114.192;2023-02-10T07:33:07;24.00;99.90
41435;DHT22;27177;22.262;114.192;2023-02-10T07:35:33;24.00;99.90
41435;DHT22;27177;22.262;114.192;2023-02-10T07:37:59;24.10;99.90
41435;DHT22;27177;22.262;114.192;2023-02-10T07:40:26;24.00;99.90
41435;DHT22;27177;22.262;114.192;2023-02-10T07:42:54;24.00;99.90
41435;DHT22;27177;22.262;114.192;2023-02-10T07:45:20;24.00;99.90
41435;DHT22;27177;22.262;114.192;2023-02-10T07:47:47;24.00;99.90
41435;DHT22;27177;22.262;114.192;2023-02-10T07:50:13;24.00;99.90
41435;DHT22;27177;22.262;114.192;2023-02-10T07:52:39;24.00;99.90
41435;DHT22;27177;22.262;114.192;2023-02-10T07:55:07;23.90;99.90
41435;DHT22;27177;22.262;114.192;2023-02-10T08:00:07;23.90;99.90
41435;DHT22;27177;22.262;114.192;2023-02-10T08:02:34;23.80;99.90
41435;DHT22;27177;22.262;114.192;2023-02-10T08:05:00;23.70;99.90
41435;DHT22;27177;22.262;114.192;2023-02-10T08:07:26;23.70;99.90
41435;DHT22;27177;22.262;114.192;2023-02-10T08:09:52;23.60;99.90
41435;DHT22;27177;22.262;114.192;2023-02-10T08:12:22;23.60;99.90
41435;DHT22;27177;22.262;114.192;2023-02-10T08:17:58;23.50;99.90
41435;DHT22;27177;22.262;114.192;2023-02-10T08:31:17;23.40;99.90
41435;DHT22;27177;22.262;114.192;2023-02-10T08:36:19;23.40;99.90
41435;DHT22;27177;22.262;114.192;2023-02-10T08:38:46;23.40;99.90
41435;DHT22;27177;22.262;114.192;2023-02-10T08:41:14;23.40;99.90
41435;DHT22;27177;22.262;114.192;2023-02-10T08:43:40;23.40;99.90
41435;DHT22;27177;22.262;114.192;2023-02-10T08:46:06;23.30;99.90
41435;DHT22;27177;22.262;114.192;2023-02-10T08:51:06;23.20;99.90
41435;DHT22;27177;22.262;114.192;2023-02-10T08:53:32;23.10;99.90
41435;DHT22;27177;22.262;114.192;2023-02-10T08:56:04;23.10;99.90
41435;DHT22;27177;22.262;114.192;2023-02-10T08:58:31;23.10;99.90
41435;DHT22;27177;22.262;114.192;2023-02-10T09:00:57;23.00;99.90
41435;DHT22;27177;22.262;114.192;2023-02-10T09:03:23;22.90;99.90
41435;DHT22;27177;22.262;114.192;2023-02-10T09:05:49;22.90;99.90
41435;DHT22;27177;22.262;114.192;2023-02-10T09:08:16;22.80;99.90
41435;DHT22;27177;22.262;114.192;2023-02-10T09:10:43;22.80;99.90
41435;DHT22;27177;22.262;114.192;2023-02-10T09:13:09;22.70;99.90
41435;DHT22;27177;22.262;114.192;2023-02-10T09:15:39;22.60;99.90
41435;DHT22;27177;22.262;114.192;2023-02-10T09:18:06;22.60;99.90
41435;DHT22;27177;22.262;114.192;2023-02-10T09:20:32;22.60;99.90
41435;DHT22;27177;22.262;114.192;2023-02-10T09:22:58;22.60;99.90
41435;DHT22;27177;22.262;114.192;2023-02-10T09:25:25;22.50;99.90
41435;DHT22;27177;22.262;114.192;2023-02-10T09:27:52;22.50;99.90
41435;DHT22;27177;22.262;114.192;2023-02-10T09:30:20;22.40;99.90
41435;DHT22;27177;22.262;114.192;2023-02-10T09:32:46;22.40;99.90
41435;DHT22;27177;22.262;114.192;2023-02-10T09:37:59;22.40;99.90
41435;DHT22;27177;22.262;114.192;2023-02-10T09:40:26;22.30;99.90
41435;DHT22;27177;22.262;114.192;2023-02-10T09:45:22;22.20;99.90
41435;DHT22;27177;22.262;114.192;2023-02-10T09:48:00;22.10;99.90
41435;DHT22;27177;22.262;114.192;2023-02-10T09:53:17;22.00;99.90
41435;DHT22;27177;22.262;114.192;2023-02-10T09:55:54;21.90;99.90
41435;DHT22;27177;22.262;114.192;2023-02-10T10:00:48;21.80;99.90
41435;DHT22;27177;22.262;114.192;2023-02-10T10:03:17;21.80;99.90
41435;DHT22;27177;22.262;114.192;2023-02-10T10:11:19;21.70;99.90
41435;DHT22;27177;22.262;114.192;2023-02-10T10:13:48;21.60;99.90
41435;DHT22;27177;22.262;114.192;2023-02-10T10:21:19;21.50;99.90
41435;DHT22;27177;22.262;114.192;2023-02-10T10:24:33;21.40;99.90
41435;DHT22;27177;22.262;114.192;2023-02-10T10:26:38;21.40;99.90
41435;DHT22;27177;22.262;114.192;2023-02-10T10:31:37;21.40;99.90
41435;DHT22;27177;22.262;114.192;2023-02-10T10:36:53;21.30;99.90
41435;DHT22;27177;22.262;114.192;2023-02-10T10:39:38;21.30;99.90
41435;DHT22;27177;22.262;114.192;2023-02-10T10:42:24;21.30;99.90
41435;DHT22;27177;22.262;114.192;2023-02-10T10:44:53;21.30;99.90
41435;DHT22;27177;22.262;114.192;2023-02-10T10:47:34;21.20;99.90
41435;DHT22;27177;22.262;114.192;2023-02-10T10:50:02;21.20;99.90
41435;DHT22;27177;22.262;114.192;2023-02-10T10:52:30;21.10;99.90
41435;DHT22;27177;22.262;114.192;2023-02-10T10:55:06;21.10;99.90
41435;DHT22;27177;22.262;114.192;2023-02-10T10:57:34;21.00;99.90
41435;DHT22;27177;22.262;114.192;2023-02-10T11:03:00;20.90;99.90
41435;DHT22;27177;22.262;114.192;2023-02-10T11:05:31;20.90;99.90
41435;DHT22;27177;22.262;114.192;2023-02-10T11:07:58;20.80;99.90
41435;DHT22;27177;22.262;114.192;2023-02-10T11:10:38;20.70;99.90
41435;DHT22;27177;22.262;114.192;2023-02-10T11:13:22;20.70;99.90
41435;DHT22;27177;22.262;114.192;2023-02-10T11:15:58;20.60;99.90
41435;DHT22;27177;22.262;114.192;2023-02-10T11:18:25;20.60;99.90
41435;DHT22;27177;22.262;114.192;2023-02-10T11:20:59;20.60;99.90
41435;DHT22;27177;22.262;114.192;2023-02-10T11:23:26;20.50;99.90
41435;DHT22;27177;22.262;114.192;2023-02-10T11:25:58;20.50;99.90
41435;DHT22;27177;22.262;114.192;2023-02-10T11:28:26;20.50;99.90
41435;DHT22;27177;22.262;114.192;2023-02-10T11:31:00;20.40;99.90
41435;DHT22;27177;22.262;114.192;2023-02-10T11:33:28;20.40;99.90
41435;DHT22;27177;22.262;114.192;2023-02-10T11:35:57;20.30;99.90
41435;DHT22;27177;22.262;114.192;2023-02-10T11:38:25;20.30;99.90
41435;DHT22;27177;22.262;114.192;2023-02-10T11:40:56;20.30;99.90
41435;DHT22;27177;22.262;114.192;2023-02-10T11:43:26;20.30;99.90
41435;DHT22;27177;22.262;114.192;2023-02-10T11:45:54;20.20;99.90
41435;DHT22;27177;22.262;114.192;2023-02-10T11:48:23;20.20;99.90
41435;DHT22;27177;22.262;114.192;2023-02-10T11:51:00;20.20;99.90
41435;DHT22;27177;22.262;114.192;2023-02-10T11:53:28;20.10;99.90
41435;DHT22;27177;22.262;114.192;2023-02-10T11:56:08;20.10;99.90
41435;DHT22;27177;22.262;114.192;2023-02-10T11:59:00;20.00;99.90
41435;DHT22;27177;22.262;114.192;2023-02-10T12:01:33;20.00;99.90
41435;DHT22;27177;22.262;114.192;2023-02-10T12:27:37;19.90;99.90
41435;DHT22;27177;22.262;114.192;2023-02-10T12:35:55;19.80;99.90
41435;DHT22;27177;22.262;114.192;2023-02-10T12:38:28;19.80;99.90
41435;DHT22;27177;22.262;114.192;2023-02-10T12:41:06;19.90;99.90
41435;DHT22;27177;22.262;114.192;2023-02-10T12:46:25;19.90;99.90
41435;DHT22;27177;22.262;114.192;2023-02-10T12:51:44;19.90;99.90
41435;DHT22;27177;22.262;114.192;2023-02-10T12:54:20;19.90;99.90
41435;DHT22;27177;22.262;114.192;2023-02-10T12:56:53;19.90;99.90
41435;DHT22;27177;22.262;114.192;2023-02-10T12:59:26;20.00;99.90
41435;DHT22;27177;22.262;114.192;2023-02-10T13:01:59;19.90;99.90
41435;DHT22;27177;22.262;114.192;2023-02-10T13:04:30;19.90;99.90
41435;DHT22;27177;22.262;114.192;2023-02-10T13:07:02;19.90;99.90
41435;DHT22;27177;22.262;114.192;2023-02-10T13:09:47;20.00;99.90
41435;DHT22;27177;22.262;114.192;2023-02-10T13:12:15;20.00;99.90
41435;DHT22;27177;22.262;114.192;2023-02-10T13:14:43;20.00;99.90
41435;DHT22;27177;22.262;114.192;2023-02-10T13:17:11;20.10;99.90
41435;DHT22;27177;22.262;114.192;2023-02-10T13:24:43;20.10;99.90
41435;DHT22;27177;22.262;114.192;2023-02-10T13:29:57;20.10;99.90
41435;DHT22;27177;22.262;114.192;2023-02-10T13:35:18;20.10;99.90
41435;DHT22;27177;22.262;114.192;2023-02-10T13:40:23;20.20;99.90
41435;DHT22;27177;22.262;114.192;2023-02-10T13:42:52;20.20;99.90
41435;DHT22;27177;22.262;114.192;2023-02-10T13:45:22;20.20;99.90
41435;DHT22;27177;22.262;114.192;2023-02-10T13:47:59;20.20;99.90
41435;DHT22;27177;22.262;114.192;2023-02-10T13:50:28;20.20;99.90
41435;DHT22;27177;22.262;114.192;2023-02-10T13:53:03;20.20;99.90
41435;DHT22;27177;22.262;114.192;2023-02-10T14:00:30;20.20;99.90
41435;DHT22;27177;22.262;114.192;2023-02-10T14:05:38;20.20;99.90
41435;DHT22;27177;22.262;114.192;2023-02-10T14:08:14;20.20;99.90
41435;DHT22;27177;22.262;114.192;2023-02-10T14:10:40;20.20;99.90
41435;DHT22;27177;22.262;114.192;2023-02-10T14:15:53;20.20;99.90
41435;DHT22;27177;22.262;114.192;2023-02-10T14:18:57;20.20;99.90
41435;DHT22;27177;22.262;114.192;2023-02-10T14:21:13;20.20;99.90
41435;DHT22;27177;22.262;114.192;2023-02-10T14:23:41;20.20;99.90
41435;DHT22;27177;22.262;114.192;2023-02-10T14:26:16;20.20;99.90
41435;DHT22;27177;22.262;114.192;2023-02-10T14:28:46;20.10;99.90
41435;DHT22;27177;22.262;114.192;2023-02-10T14:31:18;20.10;99.90
41435;DHT22;27177;22.262;114.192;2023-02-10T14:36:55;20.10;99.90
41435;DHT22;27177;22.262;114.192;2023-02-10T14:39:22;20.10;99.90
41435;DHT22;27177;22.262;114.192;2023-02-10T14:41:49;20.10;99.90
41435;DHT22;27177;22.262;114.192;2023-02-10T14:44:49;20.10;99.90
41435;DHT22;27177;22.262;114.192;2023-02-10T14:47:16;20.00;99.90
41435;DHT22;27177;22.262;114.192;2023-02-10T14:49:43;20.00;99.90
41435;DHT22;27177;22.262;114.192;2023-02-10T14:52:45;20.00;99.90
41435;DHT22;27177;22.262;114.192;2023-02-10T14:57:49;20.00;99.90
41435;DHT22;27177;22.262;114.192;2023-02-10T15:00:16;19.90;99.90
41435;DHT22;27177;22.262;114.192;2023-02-10T15:02:46;19.90;99.90
41435;DHT22;27177;22.262;114.192;2023-02-10T15:05:16;19.80;99.90
41435;DHT22;27177;22.262;114.192;2023-02-10T15:07:44;19.80;99.90
41435;DHT22;27177;22.262;114.192;2023-02-10T15:12:38;19.70;99.90
41435;DHT22;27177;22.262;114.192;2023-02-10T15:15:05;19.70;99.90
41435;DHT22;27177;22.262;114.192;2023-02-10T15:17:52;19.70;99.90
41435;DHT22;27177;22.262;114.192;2023-02-10T15:20:22;19.60;99.90
41435;DHT22;27177;22.262;114.192;2023-02-10T15:22:51;19.60;99.90
41435;DHT22;27177;22.262;114.192;2023-02-10T15:30:57;19.50;99.90
41435;DHT22;27177;22.262;114.192;2023-02-10T15:36:05;19.40;99.90
41435;DHT22;27177;22.262;114.192;2023-02-10T15:38:44;19.40;99.90
41435;DHT22;27177;22.262;114.192;2023-02-10T15:46:21;19.30;99.90
41435;DHT22;27177;22.262;114.192;2023-02-10T15:48:48;19.30;99.90
41435;DHT22;27177;22.262;114.192;2023-02-10T15:51:24;19.30;99.90
41435;DHT22;27177;22.262;114.192;2023-02-10T15:53:51;19.30;99.90
41435;DHT22;27177;22.262;114.192;2023-02-10T15:56:20;19.30;99.90
41435;DHT22;27177;22.262;114.192;2023-02-10T15:58:47;19.20;99.90
41435;DHT22;27177;22.262;114.192;2023-02-10T16:01:13;19.30;99.90
41435;DHT22;27177;22.262;114.192;2023-02-10T16:03:39;19.20;99.90
41435;DHT22;27177;22.262;114.192;2023-02-10T16:06:06;19.20;99.90
41435;DHT22;27177;22.262;114.192;2023-02-10T16:08:32;19.20;99.90
41435;DHT22;27177;22.262;114.192;2023-02-10T16:10:59;19.30;99.90
41435;DHT22;27177;22.262;114.192;2023-02-10T16:13:25;19.20;99.90
41435;DHT22;27177;22.262;114.192;2023-02-10T16:15:51;19.20;99.90
41435;DHT22;27177;22.262;114.192;2023-02-10T16:18:18;19.20;99.90
41435;DHT22;27177;22.262;114.192;2023-02-10T16:20:45;19.20;99.90
41435;DHT22;27177;22.262;114.192;2023-02-10T16:23:13;19.20;99.90
41435;DHT22;27177;22.262;114.192;2023-02-10T16:25:39;19.10;99.90
41435;DHT22;27177;22.262;114.192;2023-02-10T16:28:06;19.10;99.90
41435;DHT22;27177;22.262;114.192;2023-02-10T16:30:33;19.00;99.90
41435;DHT22;27177;22.262;114.192;2023-02-10T16:33:01;19.00;99.90
41435;DHT22;27177;22.262;114.192;2023-02-10T16:35:28;19.00;99.90
41435;DHT22;27177;22.262;114.192;2023-02-10T16:37:55;19.00;99.90
41435;DHT22;27177;22.262;114.192;2023-02-10T16:42:50;18.90;99.90
41435;DHT22;27177;22.262;114.192;2023-02-10T16:45:28;18.90;99.90
41435;DHT22;27177;22.262;114.192;2023-02-10T16:47:57;18.90;99.90
41435;DHT22;27177;22.262;114.192;2023-02-10T16:50:27;18.90;99.90
41435;DHT22;27177;22.262;114.192;2023-02-10T16:53:04;18.90;99.90
41435;DHT22;27177;22.262;114.192;2023-02-10T16:55:30;18.90;99.90
41435;DHT22;27177;22.262;114.192;2023-02-10T16:57:57;18.90;99.90
41435;DHT22;27177;22.262;114.192;2023-02-10T17:00:23;18.80;99.90
41435;DHT22;27177;22.262;114.192;2023-02-10T17:02:49;18.80;99.90
41435;DHT22;27177;22.262;114.192;2023-02-10T17:05:16;18.80;99.90
41435;DHT22;27177;22.262;114.192;2023-02-10T17:07:42;18.80;99.90
41435;DHT22;27177;22.262;114.192;2023-02-10T17:10:16;18.70;99.90
41435;DHT22;27177;22.262;114.192;2023-02-10T17:12:42;18.70;99.90
41435;DHT22;27177;22.262;114.192;2023-02-10T17:15:09;18.70;99.90
41435;DHT22;27177;22.262;114.192;2023-02-10T17:17:35;18.70;99.90
41435;DHT22;27177;22.262;114.192;2023-02-10T17:20:02;18.60;99.90
41435;DHT22;27177;22.262;114.192;2023-02-10T17:22:29;18.60;99.90
41435;DHT22;27177;22.262;114.192;2023-02-10T17:24:55;18.60;99.90
41435;DHT22;27177;22.262;114.192;2023-02-10T17:27:21;18.50;99.90
41435;DHT22;27177;22.262;114.192;2023-02-10T17:29:49;18.50;99.90
41435;DHT22;27177;22.262;114.192;2023-02-10T17:32:16;18.60;99.90
41435;DHT22;27177;22.262;114.192;2023-02-10T17:34:43;18.60;99.90
41435;DHT22;27177;22.262;114.192;2023-02-10T17:37:09;18.50;99.90
41435;DHT22;27177;22.262;114.192;2023-02-10T17:39:36;18.60;99.90
41435;DHT22;27177;22.262;114.192;2023-02-10T17:42:03;18.60;99.90
41435;DHT22;27177;22.262;114.192;2023-02-10T17:44:29;18.60;99.90
41435;DHT22;27177;22.262;114.192;2023-02-10T17:46:56;18.60;99.90
41435;DHT22;27177;22.262;114.192;2023-02-10T17:49:24;18.50;99.90
41435;DHT22;27177;22.262;114.192;2023-02-10T17:51:50;18.50;99.90
41435;DHT22;27177;22.262;114.192;2023-02-10T17:54:19;18.50;99.90
41435;DHT22;27177;22.262;114.192;2023-02-10T17:56:45;18.50;99.90
41435;DHT22;27177;22.262;114.192;2023-02-10T17:59:11;18.50;99.90
41435;DHT22;27177;22.262;114.192;2023-02-10T18:01:38;18.50;99.90
41435;DHT22;27177;22.262;114.192;2023-02-10T18:04:04;18.40;99.90
41435;DHT22;27177;22.262;114.192;2023-02-10T18:06:31;18.40;99.90
41435;DHT22;27177;22.262;114.192;2023-02-10T18:08:57;18.40;99.90
41435;DHT22;27177;22.262;114.192;2023-02-10T18:11:25;18.40;99.90
41435;DHT22;27177;22.262;114.192;2023-02-10T18:13:54;18.40;99.90
41435;DHT22;27177;22.262;114.192;2023-02-10T18:16:21;18.40;99.90
41435;DHT22;27177;22.262;114.192;2023-02-10T18:18:47;18.40;99.90
41435;DHT22;27177;22.262;114.192;2023-02-10T18:21:14;18.30;99.90
41435;DHT22;27177;22.262;114.192;2023-02-10T18:23:43;18.50;99.90
41435;DHT22;27177;22.262;114.192;2023-02-10T18:26:10;18.30;99.90